This is the latest recevied weather packets stored in our database for station/object K7FLA. If no packets are shown the sender has not sent any weather packets the latest 10 day(s).
| Time | Temp. | Humidity | Pressure | Rain* | Wind** | Luminosity | Snow |
|---|---|---|---|---|---|---|---|
| 1777910414 | 14.44° C | 60% | 1095.1 hPa | 0 mm | - | 265 W/m² | - |
| 1777910110 | 14.44° C | 57% | 1095.1 hPa | 0 mm | - | 252 W/m² | - |
| 1777909808 | 15° C | 58% | 1095 hPa | 0 mm | - | 153 W/m² | - |
| 1777909504 | 15° C | 57% | 1094.9 hPa | 0 mm | - | 274 W/m² | - |
| 1777909201 | 15° C | 58% | 1094.9 hPa | 0 mm | - | 216 W/m² | - |
| 1777908899 | 15° C | 57% | 1094.9 hPa | 0 mm | - | 160 W/m² | - |
| 1777908597 | 15° C | 58% | 1094.7 hPa | 0 mm | - | 260 W/m² | - |
| 1777908294 | 15.56° C | 57% | 1094.8 hPa | 0 mm | - | 176 W/m² | - |
| 1777907989 | 16.67° C | 57% | 1094.9 hPa | 0 mm | - | 164 W/m² | - |
| 1777907685 | 16.67° C | 57% | 1094.9 hPa | 0 mm | - | 164 W/m² | - |
| 1777907381 | 16.67° C | 57% | 1094.8 hPa | 0 mm | - | 251 W/m² | - |
| 1777907078 | 16.11° C | 61% | 1095 hPa | 0 mm | - | 291 W/m² | - |
| 1777906775 | 15° C | 65% | 1094.9 hPa | 0 mm | - | 336 W/m² | - |
| 1777906472 | 12.78° C | 71% | 1095 hPa | 0 mm | - | 264 W/m² | - |
| 1777906169 | 11.67° C | 72% | 1094.8 hPa | 0 mm | - | 207 W/m² | - |
| 1777905865 | 11.67° C | 73% | 1094.6 hPa | 0 mm | - | 125 W/m² | - |
| 1777905562 | 11.67° C | 74% | 1094.7 hPa | 0 mm | - | 120 W/m² | - |
| 1777905259 | 11.11° C | 75% | 1094.6 hPa | 0 mm | - | 97 W/m² | - |
| 1777904956 | 11.11° C | 75% | 1094.8 hPa | 0 mm | - | 97 W/m² | - |
| 1777904654 | 11.11° C | 76% | 1094.6 hPa | 0 mm | - | 82 W/m² | - |
| 1777904350 | 11.11° C | 77% | 1094.8 hPa | 0 mm | - | 77 W/m² | - |
| 1777904047 | 10.56° C | 77% | 1094.5 hPa | 0 mm | - | 104 W/m² | - |
| 1777903744 | 10.56° C | 78% | 1094.9 hPa | 0 mm | - | 54 W/m² | - |
| 1777903440 | 10.56° C | 78% | 1094.9 hPa | 0 mm | - | 47 W/m² | - |
| 1777903137 | 10° C | 78% | 1095 hPa | 0 mm | - | 62 W/m² | - |
* Rain latest hour (hover to see other rain measurements)
** Current wind speed in m/s (hover to see current wind gust speed)